createdAt,value
2018-03-26T00:01:31.790Z,56.80
2018-03-26T00:04:00.113Z,57.00
2018-03-26T00:06:27.765Z,56.90
2018-03-26T00:08:55.346Z,56.70
2018-03-26T00:11:23.708Z,56.30
2018-03-26T00:13:51.783Z,56.30
2018-03-26T00:16:20.113Z,55.90
2018-03-26T00:18:49.223Z,55.90
2018-03-26T00:21:18.710Z,55.70
2018-03-26T00:23:47.039Z,55.60
2018-03-26T00:26:14.597Z,55.60
2018-03-26T00:28:43.435Z,56.70
2018-03-26T00:31:11.574Z,56.70
2018-03-26T00:33:39.153Z,57.20
2018-03-26T00:36:06.728Z,57.50
2018-03-26T00:38:34.296Z,57.50
2018-03-26T00:41:02.619Z,57.60
2018-03-26T00:43:30.291Z,57.60
2018-03-26T00:45:58.611Z,57.90
2018-03-26T00:48:26.693Z,57.80
2018-03-26T00:50:54.306Z,57.80
2018-03-26T00:53:33.744Z,58.00
2018-03-26T00:56:01.449Z,58.00
2018-03-26T00:58:30.493Z,58.50
2018-03-26T01:01:02.075Z,57.90
2018-03-26T01:03:30.402Z,58.00
2018-03-26T01:05:58.012Z,58.00
2018-03-26T01:08:25.902Z,57.80
2018-03-26T01:10:53.538Z,58.00
2018-03-26T01:13:21.107Z,57.90
2018-03-26T01:15:48.775Z,58.00
2018-03-26T01:18:17.075Z,58.00
2018-03-26T01:20:44.627Z,58.10
2018-03-26T01:23:13.427Z,58.20
2018-03-26T01:25:43.942Z,58.30
2018-03-26T01:28:12.902Z,58.30
2018-03-26T01:30:42.252Z,58.70
2018-03-26T01:33:09.790Z,58.30
2018-03-26T01:35:37.342Z,58.80
2018-03-26T01:38:05.946Z,58.30
2018-03-26T01:40:33.560Z,58.40
2018-03-26T01:43:02.113Z,58.40
2018-03-26T01:45:29.654Z,58.50
2018-03-26T01:47:57.234Z,58.70
2018-03-26T01:50:25.762Z,58.80
2018-03-26T01:52:54.392Z,58.60
2018-03-26T01:55:21.976Z,58.80
2018-03-26T01:57:50.655Z,58.80
2018-03-26T02:00:18.216Z,58.70
2018-03-26T02:02:46.751Z,58.80
2018-03-26T02:05:15.293Z,58.50
2018-03-26T02:07:44.310Z,58.50
2018-03-26T02:10:12.703Z,58.30
2018-03-26T02:12:41.309Z,58.20
2018-03-26T02:15:09.650Z,57.80
2018-03-26T02:17:37.259Z,57.90
2018-03-26T02:20:04.822Z,57.60
2018-03-26T02:22:32.371Z,57.40
2018-03-26T02:24:59.923Z,57.50
2018-03-26T02:27:27.507Z,57.40
2018-03-26T02:29:55.056Z,57.40
2018-03-26T02:32:22.665Z,57.40
2018-03-26T02:34:51.006Z,57.60
2018-03-26T02:37:18.575Z,57.60
2018-03-26T02:39:46.881Z,58.10
2018-03-26T02:42:14.516Z,58.10
2018-03-26T02:44:42.908Z,58.30
2018-03-26T02:47:12.170Z,58.40
2018-03-26T02:49:39.743Z,58.40
2018-03-26T02:52:07.297Z,58.50
2018-03-26T02:54:36.171Z,58.40
2018-03-26T02:57:03.773Z,58.40
2018-03-26T02:59:31.317Z,58.50
2018-03-26T03:01:58.889Z,58.50
2018-03-26T03:04:26.818Z,58.60
2018-03-26T03:06:54.365Z,58.50
2018-03-26T03:09:21.893Z,58.30
2018-03-26T03:11:49.468Z,58.20
2018-03-26T03:14:17.827Z,58.20
2018-03-26T03:16:46.171Z,58.20
2018-03-26T03:19:13.788Z,58.10
2018-03-26T03:21:42.320Z,58.40
2018-03-26T03:24:10.032Z,58.50
2018-03-26T03:26:38.358Z,58.30
2018-03-26T03:29:05.963Z,58.30
2018-03-26T03:31:33.559Z,58.20
2018-03-26T03:34:01.115Z,58.00
2018-03-26T03:36:29.435Z,58.10
2018-03-26T03:38:57.330Z,58.00
2018-03-26T03:41:24.878Z,58.20
2018-03-26T03:43:52.496Z,58.10
2018-03-26T03:46:20.137Z,58.20
2018-03-26T03:48:47.752Z,58.40
2018-03-26T03:51:15.323Z,58.20
2018-03-26T03:53:43.380Z,58.20
2018-03-26T03:56:11.175Z,58.20
2018-03-26T03:58:38.798Z,58.00
2018-03-26T04:01:06.405Z,58.20
2018-03-26T04:03:34.008Z,58.20
2018-03-26T04:06:01.571Z,58.40
2018-03-26T04:08:29.131Z,58.40
2018-03-26T04:10:56.700Z,58.40
2018-03-26T04:13:25.048Z,58.20
2018-03-26T04:15:52.586Z,58.30
2018-03-26T04:18:20.182Z,58.10
2018-03-26T04:20:47.718Z,58.10
2018-03-26T04:23:15.370Z,57.90
2018-03-26T04:25:43.346Z,58.00
2018-03-26T04:28:11.181Z,57.80
2018-03-26T04:30:38.785Z,58.00
2018-03-26T04:33:06.342Z,58.10
2018-03-26T04:35:33.907Z,58.30
2018-03-26T04:38:01.482Z,58.50
2018-03-26T04:40:29.087Z,58.50
2018-03-26T04:42:56.655Z,59.00
2018-03-26T04:45:24.690Z,59.30
2018-03-26T04:47:52.246Z,59.60
2018-03-26T04:50:19.896Z,59.90
2018-03-26T04:52:47.518Z,60.20
2018-03-26T04:55:15.075Z,60.20
2018-03-26T04:57:43.632Z,60.50
2018-03-26T05:00:11.968Z,60.60
2018-03-26T05:02:39.526Z,60.60
2018-03-26T05:05:07.195Z,60.40
2018-03-26T05:07:34.758Z,60.30
2018-03-26T05:10:03.092Z,60.30
2018-03-26T05:12:30.966Z,60.30
2018-03-26T05:14:59.292Z,60.50
2018-03-26T05:17:26.943Z,60.50
2018-03-26T05:19:54.490Z,60.60
2018-03-26T05:22:22.068Z,60.90
2018-03-26T05:24:50.708Z,61.60
2018-03-26T05:27:19.251Z,61.60
2018-03-26T05:29:46.796Z,61.60
2018-03-26T05:32:14.415Z,61.80
2018-03-26T05:34:42.835Z,61.80
2018-03-26T05:37:11.864Z,61.30
2018-03-26T05:39:39.459Z,61.30
2018-03-26T05:42:07.783Z,60.60
2018-03-26T05:44:35.354Z,60.70
2018-03-26T05:47:02.899Z,60.50
2018-03-26T05:49:30.515Z,60.30
2018-03-26T05:51:58.147Z,60.00
2018-03-26T05:54:25.707Z,60.00
2018-03-26T05:56:53.388Z,59.70
2018-03-26T05:59:21.763Z,59.10
2018-03-26T06:01:49.355Z,59.20
2018-03-26T06:04:16.924Z,59.10
2018-03-26T06:06:44.555Z,58.70
2018-03-26T06:09:13.353Z,58.50
2018-03-26T06:11:41.641Z,58.50
2018-03-26T06:14:09.246Z,58.60
2018-03-26T06:16:49.360Z,58.10
2018-03-26T06:19:16.998Z,58.10
2018-03-26T06:21:44.568Z,57.90
2018-03-26T06:24:13.349Z,57.20
2018-03-26T06:26:42.455Z,57.20
2018-03-26T06:29:10.109Z,57.10
2018-03-26T06:31:37.672Z,56.90
2018-03-26T06:34:05.226Z,56.60
2018-03-26T06:39:37.198Z,56.10
2018-03-26T06:42:05.091Z,56.10
2018-03-26T06:44:33.498Z,55.20
2018-03-26T06:47:01.104Z,55.10
2018-03-26T06:49:29.823Z,54.00
2018-03-26T06:51:57.368Z,54.10
2018-03-26T06:54:25.047Z,54.00
2018-03-26T06:56:52.643Z,53.80
2018-03-26T06:59:23.005Z,53.20
2018-03-26T07:01:50.565Z,53.20
2018-03-26T07:04:18.287Z,53.40
2018-03-26T07:06:45.973Z,53.10
2018-03-26T07:09:14.297Z,53.00
2018-03-26T07:11:42.969Z,53.00
2018-03-26T07:14:11.380Z,53.00
2018-03-26T07:16:38.933Z,53.30
2018-03-26T07:19:06.995Z,53.60
2018-03-26T07:21:34.571Z,53.60
2018-03-26T07:24:02.123Z,53.80
2018-03-26T07:26:29.803Z,54.10
2018-03-26T07:28:57.344Z,54.20
2018-03-26T07:31:25.180Z,54.00
2018-03-26T07:33:52.778Z,53.90
2018-03-26T07:36:21.161Z,54.10
2018-03-26T07:38:48.718Z,53.90
2018-03-26T07:41:16.337Z,54.00
2018-03-26T07:43:43.892Z,54.10
2018-03-26T07:46:12.356Z,53.90
2018-03-26T07:48:40.207Z,53.70
2018-03-26T07:51:07.759Z,53.70
2018-03-26T07:53:36.245Z,53.50
2018-03-26T07:56:03.843Z,53.50
2018-03-26T07:58:32.186Z,54.00
2018-03-26T08:00:59.729Z,54.00
2018-03-26T08:03:27.435Z,53.90
2018-03-26T08:05:55.961Z,53.40
2018-03-26T08:08:24.319Z,53.00
2018-03-26T08:10:52.724Z,53.00
2018-03-26T08:13:20.286Z,53.00
2018-03-26T08:15:48.637Z,52.10
2018-03-26T08:18:16.265Z,52.10
2018-03-26T08:20:43.885Z,52.00
2018-03-26T08:23:13.460Z,52.10
2018-03-26T08:25:42.054Z,52.20
2018-03-26T08:28:09.777Z,51.90
2018-03-26T08:30:39.751Z,51.60
2018-03-26T08:33:07.408Z,51.60
2018-03-26T08:35:34.971Z,51.10
2018-03-26T08:38:03.290Z,49.60
2018-03-26T08:40:31.281Z,49.60
2018-03-26T08:42:59.809Z,48.90
2018-03-26T08:45:27.369Z,48.90
2018-03-26T08:47:55.134Z,48.40
2018-03-26T08:50:23.511Z,48.20
2018-03-26T08:52:51.118Z,48.20
2018-03-26T08:55:19.748Z,47.90
2018-03-26T08:57:48.258Z,47.60
2018-03-26T09:00:16.597Z,47.40
2018-03-26T09:02:44.204Z,47.40
2018-03-26T09:05:12.199Z,47.50
2018-03-26T09:07:41.213Z,47.40
2018-03-26T09:10:08.803Z,47.30
2018-03-26T09:12:36.360Z,47.30
2018-03-26T09:15:04.779Z,47.00
2018-03-26T09:17:32.395Z,47.10
2018-03-26T09:19:59.992Z,46.80
2018-03-26T09:22:27.586Z,46.80
2018-03-26T09:24:55.230Z,46.10
2018-03-26T09:27:22.816Z,45.80
2018-03-26T09:29:50.383Z,45.40
2018-03-26T09:32:19.068Z,42.70
2018-03-26T09:34:48.602Z,42.70
2018-03-26T09:37:16.134Z,42.40
2018-03-26T09:39:43.738Z,42.10
2018-03-26T09:42:12.310Z,42.20
2018-03-26T09:44:40.024Z,41.90
2018-03-26T09:47:07.605Z,41.80
2018-03-26T09:49:35.188Z,42.20
2018-03-26T09:52:03.616Z,42.10
2018-03-26T09:54:31.175Z,42.10
2018-03-26T09:57:00.638Z,42.20
2018-03-26T09:59:29.209Z,42.50
2018-03-26T10:01:57.656Z,43.10
2018-03-26T10:04:25.206Z,43.00
2018-03-26T10:06:53.274Z,42.50
2018-03-26T10:09:20.826Z,42.70
2018-03-26T10:11:48.619Z,42.00
2018-03-26T10:14:17.197Z,42.60
2018-03-26T10:16:45.725Z,41.90
2018-03-26T10:19:13.305Z,42.30
2018-03-26T10:21:42.434Z,41.10
2018-03-26T10:24:10.019Z,41.60
2018-03-26T10:26:37.577Z,41.70
2018-03-26T10:29:06.652Z,41.70
2018-03-26T10:31:34.645Z,42.20
2018-03-26T10:34:02.234Z,42.80
2018-03-26T10:36:29.835Z,43.40
2018-03-26T10:38:58.179Z,44.00
2018-03-26T10:41:26.487Z,44.20
2018-03-26T10:43:54.074Z,44.20
2018-03-26T10:46:21.634Z,44.30
2018-03-26T10:48:49.242Z,44.40
2018-03-26T10:51:17.847Z,43.30
2018-03-26T10:53:45.427Z,43.10
2018-03-26T10:56:13.341Z,43.20
2018-03-26T10:58:41.193Z,43.10
2018-03-26T11:01:09.673Z,43.10
2018-03-26T11:03:37.306Z,43.10
2018-03-26T11:06:04.917Z,43.30
2018-03-26T11:08:32.508Z,43.70
2018-03-26T11:11:00.209Z,43.00
2018-03-26T11:13:29.491Z,42.20
2018-03-26T11:15:58.330Z,42.20
2018-03-26T11:18:25.979Z,42.20
2018-03-26T11:20:53.534Z,42.00
2018-03-26T11:23:21.441Z,42.00
2018-03-26T11:25:49.119Z,42.50
2018-03-26T11:28:17.371Z,42.00
2018-03-26T11:30:45.273Z,41.60
2018-03-26T11:33:13.651Z,41.80
2018-03-26T11:35:41.805Z,41.40
2018-03-26T11:38:09.457Z,41.50
2018-03-26T11:40:37.047Z,41.20
2018-03-26T11:43:05.674Z,40.70
2018-03-26T11:45:33.269Z,40.60
2018-03-26T11:48:01.751Z,40.40
2018-03-26T11:50:29.469Z,40.40
2018-03-26T11:52:57.113Z,41.10
2018-03-26T11:55:24.967Z,41.50
2018-03-26T11:57:52.608Z,42.40
2018-03-26T12:00:20.295Z,42.40
2018-03-26T12:02:47.912Z,42.90
2018-03-26T12:05:17.549Z,43.70
2018-03-26T12:07:45.107Z,43.70
2018-03-26T12:10:13.718Z,44.40
2018-03-26T12:12:42.429Z,44.50
2018-03-26T12:15:09.977Z,44.80
2018-03-26T12:17:38.335Z,45.60
2018-03-26T12:20:25.515Z,45.80
2018-03-26T12:22:53.090Z,45.90
2018-03-26T12:25:21.485Z,47.00
2018-03-26T12:28:01.248Z,47.00
2018-03-26T12:30:28.842Z,47.50
2018-03-26T12:32:56.439Z,48.00
2018-03-26T12:35:36.161Z,48.00
2018-03-26T12:38:03.753Z,47.90
2018-03-26T12:40:43.036Z,48.30
2018-03-26T12:43:11.365Z,48.40
2018-03-26T12:45:50.647Z,48.40
2018-03-26T12:48:18.991Z,47.90
2018-03-26T12:50:58.433Z,47.80
2018-03-26T12:53:26.745Z,46.90
2018-03-26T12:55:54.324Z,46.90
2018-03-26T12:58:33.882Z,46.30
2018-03-26T13:01:13.334Z,45.50
2018-03-26T13:03:41.201Z,45.90
2018-03-26T13:06:08.829Z,45.50
2018-03-26T13:08:36.387Z,46.20
2018-03-26T13:11:04.760Z,47.50
2018-03-26T13:13:33.142Z,46.50
2018-03-26T13:16:01.068Z,46.50
2018-03-26T13:18:29.397Z,47.20
2018-03-26T13:20:57.095Z,47.20
2018-03-26T13:23:24.671Z,47.10
2018-03-26T13:25:52.314Z,46.90
2018-03-26T13:28:19.890Z,46.20
2018-03-26T13:30:48.394Z,46.10
2018-03-26T13:33:15.963Z,46.00
2018-03-26T13:35:44.563Z,46.30
2018-03-26T13:38:13.481Z,46.90
2018-03-26T13:40:42.771Z,46.90
2018-03-26T13:43:10.379Z,46.70
2018-03-26T13:45:41.655Z,47.20
2018-03-26T13:48:09.242Z,46.90
2018-03-26T13:50:37.591Z,47.70
2018-03-26T13:53:05.342Z,47.70
2018-03-26T13:55:33.827Z,47.40
2018-03-26T13:58:01.420Z,47.50
2018-03-26T14:00:33.998Z,47.70
2018-03-26T14:03:01.668Z,47.70
2018-03-26T14:05:37.696Z,48.10
2018-03-26T14:08:05.429Z,48.20
2018-03-26T14:10:45.911Z,47.50
2018-03-26T14:13:28.403Z,47.50
2018-03-26T14:19:14.232Z,47.80
2018-03-26T14:21:42.213Z,48.00
2018-03-26T14:24:10.036Z,48.60
2018-03-26T14:26:39.166Z,48.50
2018-03-26T14:29:08.737Z,48.30
2018-03-26T14:31:36.297Z,48.60
2018-03-26T14:34:03.911Z,49.30
2018-03-26T14:36:36.416Z,48.50
2018-03-26T14:39:04.378Z,48.90
2018-03-26T14:41:40.100Z,48.60
2018-03-26T14:44:09.293Z,48.80
2018-03-26T14:46:36.901Z,48.60
2018-03-26T14:49:05.227Z,49.00
2018-03-26T14:51:33.146Z,49.10
2018-03-26T14:54:00.713Z,49.00
2018-03-26T14:56:29.633Z,49.40
2018-03-26T14:58:58.582Z,49.60
2018-03-26T15:01:26.151Z,49.60
2018-03-26T15:04:01.444Z,50.30
2018-03-26T15:06:29.700Z,50.40
2018-03-26T15:08:57.697Z,50.30
2018-03-26T15:11:25.700Z,51.00
2018-03-26T15:13:53.276Z,51.20
2018-03-26T15:16:20.973Z,51.00
2018-03-26T15:18:49.441Z,50.60
2018-03-26T15:21:16.985Z,50.60
2018-03-26T15:23:44.550Z,50.70
2018-03-26T15:26:13.215Z,50.20
2018-03-26T15:28:40.806Z,50.20
2018-03-26T15:31:08.446Z,50.10
2018-03-26T15:33:36.959Z,49.90
2018-03-26T15:36:04.556Z,49.70
2018-03-26T15:38:32.132Z,49.40
2018-03-26T15:40:59.763Z,49.40
2018-03-26T15:43:28.026Z,49.30
2018-03-26T15:45:55.575Z,49.30
2018-03-26T15:48:24.445Z,49.40
2018-03-26T15:50:52.022Z,49.60
2018-03-26T15:53:20.541Z,49.80
2018-03-26T15:55:48.442Z,50.30
2018-03-26T15:58:16.090Z,50.60
2018-03-26T16:00:43.655Z,50.60
2018-03-26T16:03:16.887Z,50.70
2018-03-26T16:05:46.245Z,50.40
2018-03-26T16:08:13.863Z,50.50
2018-03-26T16:10:41.451Z,50.70
2018-03-26T16:13:09.792Z,50.10
2018-03-26T16:15:37.359Z,50.00
2018-03-26T16:18:05.319Z,49.80
2018-03-26T16:20:32.941Z,49.40
2018-03-26T16:23:00.504Z,49.10
2018-03-26T16:25:28.820Z,48.70
2018-03-26T16:27:57.518Z,49.10
2018-03-26T16:30:25.172Z,49.10
2018-03-26T16:32:53.520Z,50.10
2018-03-26T16:35:21.908Z,50.20
2018-03-26T16:37:49.571Z,50.10
2018-03-26T16:40:17.202Z,50.00
2018-03-26T16:42:44.811Z,50.30
2018-03-26T16:45:13.159Z,50.20
2018-03-26T16:47:40.772Z,50.30
2018-03-26T16:50:09.122Z,50.60
2018-03-26T16:52:36.777Z,50.60
2018-03-26T16:55:06.061Z,49.80
2018-03-26T16:57:33.625Z,50.00
2018-03-26T17:00:02.038Z,50.20
2018-03-26T17:02:30.616Z,50.30
2018-03-26T17:04:58.736Z,50.80
2018-03-26T17:07:26.339Z,50.40
2018-03-26T17:09:54.702Z,52.00
2018-03-26T17:12:22.297Z,52.00
2018-03-26T17:14:50.215Z,52.60
2018-03-26T17:17:17.782Z,53.20
2018-03-26T17:19:45.369Z,55.10
2018-03-26T17:22:12.982Z,56.10
2018-03-26T17:24:40.659Z,57.10
2018-03-26T17:27:08.283Z,57.70
2018-03-26T17:29:35.967Z,58.10
2018-03-26T17:32:05.320Z,60.30
2018-03-26T17:34:33.465Z,60.10
2018-03-26T17:37:01.141Z,60.80
2018-03-26T17:39:29.429Z,63.20
2018-03-26T17:41:57.491Z,64.70
2018-03-26T17:44:25.123Z,65.70
2018-03-26T17:46:52.679Z,63.30
2018-03-26T17:49:20.726Z,65.00
2018-03-26T17:51:48.319Z,66.70
2018-03-26T17:54:16.664Z,67.50
2018-03-26T17:56:44.647Z,67.50
2018-03-26T17:59:12.986Z,67.60
2018-03-26T18:01:41.493Z,67.60
2018-03-26T18:04:09.085Z,68.20
2018-03-26T18:06:36.627Z,68.90
2018-03-26T18:09:04.298Z,69.00
2018-03-26T18:11:33.028Z,69.60
2018-03-26T18:14:01.368Z,69.90
2018-03-26T18:16:29.902Z,69.90
2018-03-26T18:18:58.358Z,70.00
2018-03-26T18:21:25.984Z,69.80
2018-03-26T18:23:54.327Z,70.10
2018-03-26T18:26:21.973Z,70.10
2018-03-26T18:28:50.515Z,70.50
2018-03-26T18:31:18.089Z,70.00
2018-03-26T18:33:46.496Z,69.80
2018-03-26T18:36:15.763Z,69.90
2018-03-26T18:38:44.651Z,70.20
2018-03-26T18:41:13.446Z,70.50
2018-03-26T18:43:41.946Z,70.50
2018-03-26T18:46:09.571Z,71.00
2018-03-26T18:48:37.174Z,71.20
2018-03-26T18:51:04.776Z,71.40
2018-03-26T18:53:32.364Z,71.50
2018-03-26T18:55:59.948Z,71.30
2018-03-26T18:58:28.174Z,71.20
2018-03-26T19:00:55.740Z,71.20
2018-03-26T19:03:23.444Z,71.50
2018-03-26T19:05:51.031Z,71.50
2018-03-26T19:08:18.650Z,71.10
2018-03-26T19:10:46.647Z,71.70
2018-03-26T19:13:15.897Z,71.90
2018-03-26T19:15:43.494Z,71.90
2018-03-26T19:18:11.622Z,71.90
2018-03-26T19:20:39.182Z,71.60
2018-03-26T19:23:07.550Z,71.20
2018-03-26T19:25:35.198Z,71.30
2018-03-26T19:28:02.827Z,70.60
2018-03-26T19:30:31.569Z,70.20
2018-03-26T19:33:00.070Z,70.30
2018-03-26T19:35:33.879Z,70.30
2018-03-26T19:38:02.230Z,70.60
2018-03-26T19:40:30.290Z,70.60
2018-03-26T19:42:58.771Z,70.50
2018-03-26T19:45:26.391Z,70.20
2018-03-26T19:47:54.009Z,70.90
2018-03-26T19:50:21.867Z,71.00
2018-03-26T19:52:49.427Z,71.40
2018-03-26T19:55:17.901Z,70.80
2018-03-26T19:57:47.229Z,70.60
2018-03-26T20:00:14.955Z,70.50
2018-03-26T20:02:43.551Z,70.60
2018-03-26T20:05:12.267Z,70.90
2018-03-26T20:07:40.636Z,70.60
2018-03-26T20:10:09.036Z,70.90
2018-03-26T20:12:36.726Z,71.10
2018-03-26T20:15:04.419Z,71.10
2018-03-26T20:17:32.807Z,71.20
2018-03-26T20:20:00.503Z,71.20
2018-03-26T20:22:28.661Z,71.10
2018-03-26T20:24:57.664Z,70.60
2018-03-26T20:27:27.636Z,70.50
2018-03-26T20:29:55.963Z,70.30
2018-03-26T20:32:23.522Z,70.30
2018-03-26T20:34:51.139Z,70.30
2018-03-26T20:37:19.913Z,70.40
2018-03-26T20:39:48.625Z,69.80
2018-03-26T20:42:16.998Z,69.50
2018-03-26T20:44:45.572Z,69.60
2018-03-26T20:47:17.636Z,69.70
2018-03-26T20:49:46.012Z,70.10
2018-03-26T20:52:13.872Z,70.10
2018-03-26T20:54:45.168Z,70.10
2018-03-26T20:57:14.453Z,70.10
2018-03-26T20:59:44.226Z,70.40
2018-03-26T21:02:12.527Z,70.40
2018-03-26T21:04:43.160Z,70.30
2018-03-26T21:07:10.793Z,69.90
2018-03-26T21:09:39.600Z,70.30
2018-03-26T21:12:09.827Z,70.20
2018-03-26T21:14:40.861Z,70.20
2018-03-26T21:17:15.103Z,70.10
2018-03-26T21:19:43.594Z,70.10
2018-03-26T21:22:21.110Z,69.80
2018-03-26T21:24:50.446Z,70.10
2018-03-26T21:27:23.229Z,70.10
2018-03-26T21:29:51.711Z,69.90
2018-03-26T21:32:21.201Z,69.90
2018-03-26T21:34:49.872Z,69.70
2018-03-26T21:37:17.485Z,69.50
2018-03-26T21:39:45.031Z,69.50
2018-03-26T21:42:12.991Z,69.70
2018-03-26T21:44:41.351Z,69.80
2018-03-26T21:47:09.683Z,70.30
2018-03-26T21:49:37.587Z,70.30
2018-03-26T21:52:05.178Z,70.40
2018-03-26T21:54:32.723Z,70.50
2018-03-26T21:57:01.476Z,69.90
2018-03-26T21:59:29.143Z,69.90
2018-03-26T22:01:56.707Z,70.00
2018-03-26T22:04:24.298Z,70.40
2018-03-26T22:06:51.843Z,70.90
2018-03-26T22:09:20.221Z,71.00
2018-03-26T22:11:48.608Z,70.70
2018-03-26T22:14:16.926Z,70.70
2018-03-26T22:16:44.811Z,70.70
2018-03-26T22:19:12.389Z,71.00
2018-03-26T22:21:41.116Z,71.00
2018-03-26T22:24:09.113Z,71.20
2018-03-26T22:26:37.432Z,71.40
2018-03-26T22:29:05.853Z,71.10
2018-03-26T22:31:33.461Z,71.10
2018-03-26T22:34:01.783Z,71.00
2018-03-26T22:36:29.452Z,71.00
2018-03-26T22:38:57.062Z,71.10
2018-03-26T22:41:25.440Z,71.20
2018-03-26T22:43:53.758Z,71.10
2018-03-26T22:46:22.407Z,71.20
2018-03-26T22:48:51.688Z,71.20
2018-03-26T22:51:19.305Z,71.90
2018-03-26T22:53:47.221Z,71.60
2018-03-26T22:56:14.773Z,71.50
2018-03-26T22:58:42.332Z,71.40
2018-03-26T23:01:10.008Z,71.70
2018-03-26T23:03:38.716Z,71.50
2018-03-26T23:06:07.480Z,71.50
2018-03-26T23:08:36.100Z,71.30
2018-03-26T23:11:05.246Z,71.30
2018-03-26T23:13:33.328Z,71.30
2018-03-26T23:16:02.228Z,71.80
2018-03-26T23:18:30.563Z,72.00
2018-03-26T23:21:00.092Z,72.00
2018-03-26T23:23:27.701Z,72.00
2018-03-26T23:25:55.564Z,71.90
2018-03-26T23:28:23.202Z,71.90
2018-03-26T23:30:51.477Z,72.20
2018-03-26T23:33:19.117Z,72.10
2018-03-26T23:35:49.788Z,71.90
2018-03-26T23:38:17.439Z,71.80
2018-03-26T23:40:45.906Z,71.80
2018-03-26T23:43:13.499Z,71.80
2018-03-26T23:45:41.159Z,71.80
2018-03-26T23:48:11.543Z,71.40
2018-03-26T23:50:39.100Z,71.40
2018-03-26T23:53:07.808Z,71.40
2018-03-26T23:55:36.148Z,71.50
2018-03-26T23:58:05.405Z,71.80
